EDT,Max TemperatureF,Mean TemperatureF,Min TemperatureF,Max Dew PointF,MeanDew PointF,Min DewpointF,Max Humidity, Mean Humidity, Min Humidity, Max Sea Level PressureIn, Mean Sea Level PressureIn, Min Sea Level PressureIn, Max VisibilityMiles, Mean VisibilityMiles, Min VisibilityMiles, Max Wind SpeedMPH, Mean Wind SpeedMPH, Max Gust SpeedMPH,PrecipitationIn, CloudCover, Events, WindDirDegrees
2012-10-1,77,72,68,72,69,64,94,93,83,29.86,29.78,29.68,10,5,0,15,3,29,0.00,8,,128
2012-10-2,77,72,64,72,65,61,100,80,57,30.04,29.87,29.73,10,9,2,10,4,21,0.00,6,,209
2012-10-3,77,68,60,64,61,59,100,80,54,30.25,30.15,30.04,10,10,7,6,1,,0.00,0,,221
2012-10-4,82,71,60,63,58,50,100,70,34,30.32,30.27,30.23,10,8,0,8,1,,0.00,0,,314
2012-10-5,82,68,55,63,57,54,94,71,37,30.26,30.18,30.08,10,10,5,6,1,,0.00,0,,317
2012-10-6,82,71,60,63,60,57,94,69,48,30.10,30.03,29.96,10,10,10,12,5,,0.00,1,,289
2012-10-7,71,63,55,59,54,46,88,72,53,30.12,30.06,30.01,10,10,10,16,5,23,0.00,1,,300
2012-10-8,60,56,53,54,49,46,88,75,59,30.20,30.15,30.10,10,10,10,9,2,17,0.00,7,,66
2012-10-9,68,60,51,52,50,48,94,77,49,30.21,30.16,30.10,10,10,7,9,2,,0.00,5,,58
2012-10-10,73,60,48,55,51,46,94,76,50,30.21,30.16,30.14,10,9,2,16,3,22,0.00,3,,314
2012-10-11,73,60,48,54,49,45,94,70,36,30.34,30.27,30.20,10,10,7,7,3,,0.00,0,,326
2012-10-12,78,68,57,61,56,50,88,69,50,30.31,30.26,30.23,10,10,10,14,3,17,0.00,3,,310
2012-10-13,73,66,59,59,54,50,94,71,46,30.43,30.36,30.30,10,10,10,10,3,17,0.00,1,,72
2012-10-14,77,67,57,64,58,52,94,77,61,30.34,30.22,30.08,10,10,10,4,1,,0.00,5,,63
2012-10-15,77,68,59,66,56,45,94,68,36,30.07,29.97,29.91,10,9,2,17,5,26,0.00,3,,284
2012-10-16,73,60,48,54,46,37,88,62,29,30.03,29.98,29.91,10,10,10,9,4,,0.00,0,,321
2012-10-17,77,64,50,54,49,45,94,67,32,30.02,29.95,29.89,10,10,10,8,1,,0.00,0,,154
2012-10-18,75,64,53,63,58,46,94,83,63,29.94,29.87,29.83,10,9,2,7,3,,0.00,4,,199
2012-10-19,73,62,51,50,38,28,77,44,19,29.88,29.85,29.79,10,10,10,17,7,24,0.00,0,,260
2012-10-20,71,60,50,46,43,39,77,57,35,30.02,29.93,29.86,10,10,10,14,6,22,0.00,0,,277
2012-10-21,55,53,51,46,46,46,82,77,72,30.07,30.04,30.02,10,10,10,9,6,,0.00,0,,337
2012-10-22,78,66,55,54,51,46,88,57,32,30.28,30.22,30.17,10,10,10,0,0,,0.00,0,,-1
2012-10-23,77,64,50,54,51,48,94,70,36,30.26,30.20,30.16,10,10,7,4,0,,0.00,0,,110
2012-10-24,80,65,50,59,52,46,94,71,36,30.25,30.18,30.13,10,10,5,4,0,,0.00,0,,113
2012-10-25,80,66,53,61,56,50,94,71,44,30.18,30.13,30.09,10,10,10,7,1,,0.00,1,,54
2012-10-26,80,70,59,63,58,54,94,72,39,30.12,30.05,29.97,10,10,7,8,2,,0.00,1,,50
2012-10-27,75,65,55,59,55,50,82,72,53,29.98,29.87,29.79,10,10,10,12,5,17,0.00,3,,340
2012-10-28,62,55,48,52,47,37,88,75,59,29.86,29.81,29.78,10,10,10,20,8,29,0.00,5,,303
2012-10-29,57,52,46,37,34,21,71,54,32,29.86,29.82,29.74,10,10,10,30,15,43,0.00,1,,325
2012-10-30,59,52,44,32,24,18,57,38,20,29.81,29.72,29.67,10,10,10,26,16,34,0.00,0,,300
2012-10-31,62,52,42,30,24,18,61,37,18,29.90,29.86,29.81,10,10,10,18,10,26,0.00,0,,285